Thedford, Canada
Current Conditions -  °F | °C
As of 5:00 PM on Monday 22 Dec 2014 (Local Time) from CYZR Reporting Station
Clear Clear  
Wind Chill: 25°   Ceiling: Unl
Heat Index: 34°   Visibility: 9mi
Dew Point: 28°   Wind: 12mph
Humidity: 81%   Direction: 140°SE
Pressure: 29.98"   Gusts: NA
Location:  43.17°N, 81.85°W
Report Text: CYZR 222200Z AUTO 14010KT 9SM CLR 01/M02 A2998 RMK PRESRR SLP159
Loading
Personal Weather Stations






























Interactive Weather Map New forecast layout! Learn more

10-Day Weather Forecast

Advertisements
Track Severe Weather on mobile